createdAt,value
2023-04-16T00:01:03.682Z,101978.63
2023-04-16T00:11:04.972Z,101980.41
2023-04-16T00:21:06.214Z,101977.00
2023-04-16T00:31:07.524Z,101978.72
2023-04-16T00:41:08.851Z,101977.03
2023-04-16T00:51:10.136Z,101974.44
2023-04-16T01:01:11.468Z,101970.03
2023-04-16T01:11:12.749Z,101970.94
2023-04-16T01:21:14.043Z,101970.06
2023-04-16T01:31:15.368Z,101966.63
2023-04-16T01:41:16.669Z,101981.38
2023-04-16T01:51:17.955Z,101973.50
2023-04-16T02:01:19.359Z,101980.44
2023-04-16T02:11:20.625Z,101975.22
2023-04-16T02:21:21.876Z,101974.38
2023-04-16T02:31:23.150Z,101964.03
2023-04-16T02:41:24.421Z,101971.78
2023-04-16T02:51:25.698Z,101975.41
2023-04-16T03:01:26.941Z,101986.63
2023-04-16T03:11:28.187Z,101985.84
2023-04-16T03:21:29.437Z,101999.78
2023-04-16T03:31:30.666Z,101999.75
2023-04-16T03:41:32.001Z,102005.88
2023-04-16T03:51:33.248Z,102004.16
2023-04-16T04:01:34.519Z,102004.16
2023-04-16T04:11:35.763Z,102006.81
2023-04-16T04:21:37.017Z,101999.81
2023-04-16T04:31:38.309Z,102015.56
2023-04-16T04:41:39.582Z,102014.72
2023-04-16T04:51:40.854Z,102015.63
2023-04-16T05:01:42.198Z,102028.81
2023-04-16T05:11:43.504Z,102031.28
2023-04-16T05:21:44.762Z,102032.25
2023-04-16T05:31:46.012Z,102040.09
2023-04-16T05:41:47.281Z,102057.56
2023-04-16T05:51:50.629Z,102059.41
2023-04-16T06:01:52.197Z,102074.28
2023-04-16T06:11:53.485Z,102074.28
2023-04-16T06:21:54.702Z,102068.28
2023-04-16T06:42:24.946Z,102091.84
2023-04-16T06:52:26.199Z,102101.44
2023-04-16T07:02:27.633Z,102113.63
2023-04-16T07:12:28.984Z,102118.00
2023-04-16T07:22:30.246Z,102135.50
2023-04-16T07:32:31.538Z,102146.97
2023-04-16T18:00:14.376Z,102305.75
2023-04-16T19:34:02.338Z,102345.28
2023-04-16T19:44:08.152Z,102348.78
2023-04-16T19:54:11.573Z,102360.13
2023-04-16T20:04:12.923Z,102373.19
2023-04-16T20:14:14.779Z,102371.59
2023-04-16T20:24:19.246Z,102374.31
2023-04-16T20:34:20.619Z,102382.09
2023-04-16T20:44:22.222Z,102366.47
2023-04-16T20:54:23.671Z,102355.94
2023-04-16T21:04:25.203Z,102363.91
2023-04-16T21:14:28.430Z,102363.00
2023-04-16T21:24:29.782Z,102365.50
2023-04-16T21:34:31.052Z,102369.91
2023-04-16T21:44:32.382Z,102364.75
2023-04-16T21:54:34.358Z,102367.34
2023-04-16T22:04:35.690Z,102370.97
2023-04-16T22:14:36.986Z,102364.03
2023-04-16T22:24:38.228Z,102363.06
2023-04-16T22:34:45.580Z,102353.63
2023-04-16T22:44:46.826Z,102359.75
2023-04-16T22:54:48.078Z,102359.50
2023-04-16T23:04:49.475Z,102363.00
2023-04-16T23:14:50.925Z,102364.00
2023-04-16T23:24:52.217Z,102364.78
2023-04-16T23:34:53.641Z,102365.66
2023-04-16T23:44:54.949Z,102366.81
2023-04-16T23:54:56.250Z,102367.47
